עמוד ראשי
METAR-TAF:

METAR-TAF

שדות תעופה :

Rurrenabaque, בוליביה

קו רוחב: 14-28S, קו אורך: 067-34W, גובה: 204מטר

תצפית מזג אוויר נוכחית

הדו"ח נערך לפני 6 שעות ו 29דקות, בשעה 22:00 UTC
רוח 3קשר מכיוון צפון/צפון-מערב
טמפרטורת 30 צלסיוס
לחות 66%
לחץ 1014 hPa
ראות: 8000מטר

METAR: SLRQ 242200Z 34003KT 8000 NSC 30/23 Q1014

זמן: 00:29 (04:29 UTC)


TAF: חסר

תצפיות ותחזיות מזג אוויר לגבי יותר מ- 4,000 שדות תעופה ברחבי העולם. דוחות METAR ו- TAF.

התחנות הזמינות מסומנות בנקודות צהובות ואדומות על גבי המפה.

העבר את העכבר לנקודה הצבעונית על מנת לראות את שם התחנה.

לאחר מכן, לחץ כדי לראות את תוכן ואת תחזיות מזג האוויר.

כדי לשנות את המפה: לחץ על הכפתורים הירוקים עם הפלוס השחור כדי להתקרב; על הכפתור הירוק עם המקף כדי להתרחק; או בחיצים הירוקים למפות סמוכות.


METAR-TAF: